sensor_id;sensor_type;location;lat;lon;timestamp;P1;durP1;ratioP1;P2;durP2;ratioP2
74620;SDS011;64861;47.546;19.254;2023-04-25T00:01:08;4.68;;;1.40;;
74620;SDS011;64861;47.546;19.254;2023-04-25T00:03:34;4.18;;;1.60;;
74620;SDS011;64861;47.546;19.254;2023-04-25T00:06:00;5.50;;;1.80;;
74620;SDS011;64861;47.546;19.254;2023-04-25T00:08:31;4.63;;;1.38;;
74620;SDS011;64861;47.546;19.254;2023-04-25T00:10:57;4.05;;;1.48;;
74620;SDS011;64861;47.546;19.254;2023-04-25T00:13:23;3.30;;;1.30;;
74620;SDS011;64861;47.546;19.254;2023-04-25T00:15:50;4.97;;;1.30;;
74620;SDS011;64861;47.546;19.254;2023-04-25T00:18:18;3.60;;;1.33;;
74620;SDS011;64861;47.546;19.254;2023-04-25T00:20:46;3.95;;;1.20;;
74620;SDS011;64861;47.546;19.254;2023-04-25T00:23:13;2.97;;;1.20;;
74620;SDS011;64861;47.546;19.254;2023-04-25T00:25:49;4.00;;;1.30;;
74620;SDS011;64861;47.546;19.254;2023-04-25T00:28:16;4.43;;;1.45;;
74620;SDS011;64861;47.546;19.254;2023-04-25T00:30:41;3.25;;;1.25;;
74620;SDS011;64861;47.546;19.254;2023-04-25T00:33:08;3.83;;;1.17;;
74620;SDS011;64861;47.546;19.254;2023-04-25T00:35:34;3.63;;;1.20;;
74620;SDS011;64861;47.546;19.254;2023-04-25T00:38:00;3.80;;;1.30;;
74620;SDS011;64861;47.546;19.254;2023-04-25T00:40:26;4.15;;;1.50;;
74620;SDS011;64861;47.546;19.254;2023-04-25T00:42:52;4.32;;;1.33;;
74620;SDS011;64861;47.546;19.254;2023-04-25T00:45:18;4.70;;;1.25;;
74620;SDS011;64861;47.546;19.254;2023-04-25T00:47:44;4.38;;;1.10;;
74620;SDS011;64861;47.546;19.254;2023-04-25T00:50:11;4.70;;;1.30;;
74620;SDS011;64861;47.546;19.254;2023-04-25T00:52:41;3.28;;;1.17;;
74620;SDS011;64861;47.546;19.254;2023-04-25T00:55:09;3.50;;;1.20;;
74620;SDS011;64861;47.546;19.254;2023-04-25T00:57:36;3.90;;;1.20;;
74620;SDS011;64861;47.546;19.254;2023-04-25T01:00:03;3.55;;;1.23;;
74620;SDS011;64861;47.546;19.254;2023-04-25T01:02:32;3.30;;;0.90;;
74620;SDS011;64861;47.546;19.254;2023-04-25T01:04:58;3.63;;;1.00;;
74620;SDS011;64861;47.546;19.254;2023-04-25T01:07:24;5.18;;;1.20;;
74620;SDS011;64861;47.546;19.254;2023-04-25T01:09:51;3.58;;;1.10;;
74620;SDS011;64861;47.546;19.254;2023-04-25T01:12:17;2.50;;;1.00;;
74620;SDS011;64861;47.546;19.254;2023-04-25T01:14:43;3.35;;;1.00;;
74620;SDS011;64861;47.546;19.254;2023-04-25T01:17:09;2.58;;;1.00;;
74620;SDS011;64861;47.546;19.254;2023-04-25T01:19:34;2.47;;;0.82;;
74620;SDS011;64861;47.546;19.254;2023-04-25T01:22:00;3.65;;;1.02;;
74620;SDS011;64861;47.546;19.254;2023-04-25T01:24:26;1.60;;;0.70;;
74620;SDS011;64861;47.546;19.254;2023-04-25T01:26:51;3.20;;;1.00;;
74620;SDS011;64861;47.546;19.254;2023-04-25T01:29:19;4.30;;;1.02;;
74620;SDS011;64861;47.546;19.254;2023-04-25T01:31:45;3.80;;;1.10;;
74620;SDS011;64861;47.546;19.254;2023-04-25T01:34:14;4.32;;;1.00;;
74620;SDS011;64861;47.546;19.254;2023-04-25T01:36:40;3.13;;;0.90;;
74620;SDS011;64861;47.546;19.254;2023-04-25T01:39:06;2.05;;;0.80;;
74620;SDS011;64861;47.546;19.254;2023-04-25T01:41:32;4.60;;;1.00;;
74620;SDS011;64861;47.546;19.254;2023-04-25T01:43:59;3.05;;;0.90;;
74620;SDS011;64861;47.546;19.254;2023-04-25T01:46:26;4.68;;;0.90;;
74620;SDS011;64861;47.546;19.254;2023-04-25T01:48:51;3.50;;;0.85;;
74620;SDS011;64861;47.546;19.254;2023-04-25T01:51:17;2.67;;;0.77;;
74620;SDS011;64861;47.546;19.254;2023-04-25T01:53:43;4.75;;;1.17;;
74620;SDS011;64861;47.546;19.254;2023-04-25T01:56:08;1.73;;;0.70;;
74620;SDS011;64861;47.546;19.254;2023-04-25T01:58:34;3.10;;;0.95;;
74620;SDS011;64861;47.546;19.254;2023-04-25T02:01:00;4.60;;;0.90;;
74620;SDS011;64861;47.546;19.254;2023-04-25T02:03:25;3.53;;;0.95;;
74620;SDS011;64861;47.546;19.254;2023-04-25T02:05:51;3.45;;;0.90;;
74620;SDS011;64861;47.546;19.254;2023-04-25T02:08:16;1.73;;;0.70;;
74620;SDS011;64861;47.546;19.254;2023-04-25T02:10:43;3.10;;;0.73;;
74620;SDS011;64861;47.546;19.254;2023-04-25T02:13:08;1.70;;;0.65;;
74620;SDS011;64861;47.546;19.254;2023-04-25T02:15:34;3.85;;;0.70;;
74620;SDS011;64861;47.546;19.254;2023-04-25T02:18:00;3.13;;;0.90;;
74620;SDS011;64861;47.546;19.254;2023-04-25T02:20:25;2.42;;;0.77;;
74620;SDS011;64861;47.546;19.254;2023-04-25T02:22:52;2.45;;;0.85;;
74620;SDS011;64861;47.546;19.254;2023-04-25T02:25:18;5.78;;;0.90;;
74620;SDS011;64861;47.546;19.254;2023-04-25T02:27:46;1.75;;;0.68;;
74620;SDS011;64861;47.546;19.254;2023-04-25T02:30:12;4.80;;;0.90;;
74620;SDS011;64861;47.546;19.254;2023-04-25T02:32:38;2.65;;;0.75;;
74620;SDS011;64861;47.546;19.254;2023-04-25T02:35:05;2.75;;;0.90;;
74620;SDS011;64861;47.546;19.254;2023-04-25T02:37:31;6.13;;;0.85;;
74620;SDS011;64861;47.546;19.254;2023-04-25T02:39:57;2.63;;;0.70;;
74620;SDS011;64861;47.546;19.254;2023-04-25T02:42:23;1.77;;;0.70;;
74620;SDS011;64861;47.546;19.254;2023-04-25T02:44:48;3.47;;;0.70;;
74620;SDS011;64861;47.546;19.254;2023-04-25T02:47:14;1.58;;;0.60;;
74620;SDS011;64861;47.546;19.254;2023-04-25T02:49:39;1.98;;;0.70;;
74620;SDS011;64861;47.546;19.254;2023-04-25T02:52:05;2.97;;;0.57;;
74620;SDS011;64861;47.546;19.254;2023-04-25T02:54:31;3.55;;;0.60;;
74620;SDS011;64861;47.546;19.254;2023-04-25T02:56:56;2.47;;;0.80;;
74620;SDS011;64861;47.546;19.254;2023-04-25T02:59:22;3.05;;;0.70;;
74620;SDS011;64861;47.546;19.254;2023-04-25T03:01:48;2.67;;;0.65;;
74620;SDS011;64861;47.546;19.254;2023-04-25T03:04:13;2.65;;;0.65;;
74620;SDS011;64861;47.546;19.254;2023-04-25T03:06:38;2.10;;;0.73;;
74620;SDS011;64861;47.546;19.254;2023-04-25T03:09:04;2.55;;;0.63;;
74620;SDS011;64861;47.546;19.254;2023-04-25T03:11:29;2.15;;;0.60;;
74620;SDS011;64861;47.546;19.254;2023-04-25T03:13:55;2.25;;;0.70;;
74620;SDS011;64861;47.546;19.254;2023-04-25T03:16:21;1.73;;;0.60;;
74620;SDS011;64861;47.546;19.254;2023-04-25T03:18:47;2.17;;;0.63;;
74620;SDS011;64861;47.546;19.254;2023-04-25T03:21:12;1.23;;;0.55;;
74620;SDS011;64861;47.546;19.254;2023-04-25T03:23:38;2.75;;;0.77;;
74620;SDS011;64861;47.546;19.254;2023-04-25T03:26:03;1.65;;;0.60;;
74620;SDS011;64861;47.546;19.254;2023-04-25T03:28:29;1.83;;;0.50;;
74620;SDS011;64861;47.546;19.254;2023-04-25T03:30:54;1.63;;;0.50;;
74620;SDS011;64861;47.546;19.254;2023-04-25T03:33:20;1.38;;;0.60;;
74620;SDS011;64861;47.546;19.254;2023-04-25T03:35:45;3.72;;;0.70;;
74620;SDS011;64861;47.546;19.254;2023-04-25T03:38:11;4.43;;;0.80;;
74620;SDS011;64861;47.546;19.254;2023-04-25T03:40:36;3.58;;;0.70;;
74620;SDS011;64861;47.546;19.254;2023-04-25T03:43:02;3.90;;;0.80;;
74620;SDS011;64861;47.546;19.254;2023-04-25T03:45:27;9.07;;;0.70;;
74620;SDS011;64861;47.546;19.254;2023-04-25T03:47:53;4.07;;;0.60;;
74620;SDS011;64861;47.546;19.254;2023-04-25T03:50:18;7.00;;;0.80;;
74620;SDS011;64861;47.546;19.254;2023-04-25T03:52:43;7.22;;;0.90;;
74620;SDS011;64861;47.546;19.254;2023-04-25T03:55:09;6.57;;;0.70;;
74620;SDS011;64861;47.546;19.254;2023-04-25T03:57:35;4.00;;;0.70;;
74620;SDS011;64861;47.546;19.254;2023-04-25T04:00:01;5.30;;;0.60;;
74620;SDS011;64861;47.546;19.254;2023-04-25T04:02:27;2.80;;;0.50;;
74620;SDS011;64861;47.546;19.254;2023-04-25T04:04:52;9.68;;;0.90;;
74620;SDS011;64861;47.546;19.254;2023-04-25T04:07:18;9.38;;;0.70;;
74620;SDS011;64861;47.546;19.254;2023-04-25T04:09:43;7.18;;;0.60;;
74620;SDS011;64861;47.546;19.254;2023-04-25T04:12:09;10.95;;;0.70;;
74620;SDS011;64861;47.546;19.254;2023-04-25T04:14:34;12.25;;;0.90;;
74620;SDS011;64861;47.546;19.254;2023-04-25T04:17:00;8.00;;;0.80;;
74620;SDS011;64861;47.546;19.254;2023-04-25T04:19:25;10.38;;;0.77;;
74620;SDS011;64861;47.546;19.254;2023-04-25T04:21:51;10.13;;;0.90;;
74620;SDS011;64861;47.546;19.254;2023-04-25T04:24:16;15.65;;;0.90;;
74620;SDS011;64861;47.546;19.254;2023-04-25T04:26:42;8.40;;;0.93;;
74620;SDS011;64861;47.546;19.254;2023-04-25T04:29:10;4.78;;;0.73;;
74620;SDS011;64861;47.546;19.254;2023-04-25T04:31:36;8.48;;;1.08;;
74620;SDS011;64861;47.546;19.254;2023-04-25T04:34:01;8.30;;;0.98;;
74620;SDS011;64861;47.546;19.254;2023-04-25T04:36:28;7.18;;;0.82;;
74620;SDS011;64861;47.546;19.254;2023-04-25T04:38:54;6.18;;;0.60;;
74620;SDS011;64861;47.546;19.254;2023-04-25T04:41:22;5.50;;;0.68;;
74620;SDS011;64861;47.546;19.254;2023-04-25T04:43:48;8.10;;;0.70;;
74620;SDS011;64861;47.546;19.254;2023-04-25T04:46:13;5.22;;;0.55;;
74620;SDS011;64861;47.546;19.254;2023-04-25T04:48:39;3.85;;;0.60;;
74620;SDS011;64861;47.546;19.254;2023-04-25T04:51:05;5.22;;;0.70;;
74620;SDS011;64861;47.546;19.254;2023-04-25T04:53:31;6.28;;;0.45;;
74620;SDS011;64861;47.546;19.254;2023-04-25T04:55:57;3.92;;;0.65;;
74620;SDS011;64861;47.546;19.254;2023-04-25T04:58:23;10.02;;;0.70;;
74620;SDS011;64861;47.546;19.254;2023-04-25T05:00:48;3.50;;;0.60;;
74620;SDS011;64861;47.546;19.254;2023-04-25T05:03:14;4.45;;;0.50;;
74620;SDS011;64861;47.546;19.254;2023-04-25T05:05:40;5.95;;;0.68;;
74620;SDS011;64861;47.546;19.254;2023-04-25T05:08:06;4.90;;;0.77;;
74620;SDS011;64861;47.546;19.254;2023-04-25T05:10:32;8.30;;;0.60;;
74620;SDS011;64861;47.546;19.254;2023-04-25T05:12:57;4.22;;;0.60;;
74620;SDS011;64861;47.546;19.254;2023-04-25T05:15:23;3.90;;;0.55;;
74620;SDS011;64861;47.546;19.254;2023-04-25T05:17:48;5.60;;;0.50;;
74620;SDS011;64861;47.546;19.254;2023-04-25T05:20:14;1.67;;;0.50;;
74620;SDS011;64861;47.546;19.254;2023-04-25T05:22:40;3.70;;;0.50;;
74620;SDS011;64861;47.546;19.254;2023-04-25T05:25:07;5.13;;;0.68;;
74620;SDS011;64861;47.546;19.254;2023-04-25T05:27:33;2.30;;;0.50;;
74620;SDS011;64861;47.546;19.254;2023-04-25T05:29:58;1.80;;;0.47;;
74620;SDS011;64861;47.546;19.254;2023-04-25T05:32:24;4.00;;;0.50;;
74620;SDS011;64861;47.546;19.254;2023-04-25T05:34:50;3.97;;;0.50;;
74620;SDS011;64861;47.546;19.254;2023-04-25T05:37:16;4.45;;;0.40;;
74620;SDS011;64861;47.546;19.254;2023-04-25T05:39:42;3.00;;;0.47;;
74620;SDS011;64861;47.546;19.254;2023-04-25T05:42:07;3.58;;;0.68;;
74620;SDS011;64861;47.546;19.254;2023-04-25T05:44:33;6.15;;;0.55;;
74620;SDS011;64861;47.546;19.254;2023-04-25T05:46:58;3.00;;;0.55;;
74620;SDS011;64861;47.546;19.254;2023-04-25T05:49:24;4.78;;;0.63;;
74620;SDS011;64861;47.546;19.254;2023-04-25T05:51:49;5.35;;;0.85;;
74620;SDS011;64861;47.546;19.254;2023-04-25T05:54:15;1.98;;;0.47;;
74620;SDS011;64861;47.546;19.254;2023-04-25T05:56:41;3.45;;;0.60;;
74620;SDS011;64861;47.546;19.254;2023-04-25T05:59:06;2.75;;;0.70;;
74620;SDS011;64861;47.546;19.254;2023-04-25T06:01:32;27.25;;;9.43;;
74620;SDS011;64861;47.546;19.254;2023-04-25T06:03:57;11.18;;;4.70;;
74620;SDS011;64861;47.546;19.254;2023-04-25T06:06:22;10.60;;;3.28;;
74620;SDS011;64861;47.546;19.254;2023-04-25T06:08:48;10.57;;;3.10;;
74620;SDS011;64861;47.546;19.254;2023-04-25T06:11:14;9.68;;;5.20;;
74620;SDS011;64861;47.546;19.254;2023-04-25T06:13:39;18.92;;;8.07;;
74620;SDS011;64861;47.546;19.254;2023-04-25T06:16:05;30.80;;;10.25;;
74620;SDS011;64861;47.546;19.254;2023-04-25T06:18:31;34.47;;;13.18;;
74620;SDS011;64861;47.546;19.254;2023-04-25T06:20:56;32.65;;;15.68;;
74620;SDS011;64861;47.546;19.254;2023-04-25T06:23:22;36.17;;;16.65;;
74620;SDS011;64861;47.546;19.254;2023-04-25T06:25:47;38.47;;;17.73;;
74620;SDS011;64861;47.546;19.254;2023-04-25T06:28:13;31.58;;;18.25;;
74620;SDS011;64861;47.546;19.254;2023-04-25T06:30:38;41.78;;;18.15;;
74620;SDS011;64861;47.546;19.254;2023-04-25T06:33:04;44.53;;;17.83;;
74620;SDS011;64861;47.546;19.254;2023-04-25T06:35:29;44.60;;;16.95;;
74620;SDS011;64861;47.546;19.254;2023-04-25T06:37:55;39.65;;;16.65;;
74620;SDS011;64861;47.546;19.254;2023-04-25T06:40:20;35.22;;;15.98;;
74620;SDS011;64861;47.546;19.254;2023-04-25T06:42:46;44.50;;;15.38;;
74620;SDS011;64861;47.546;19.254;2023-04-25T06:45:11;41.50;;;15.13;;
74620;SDS011;64861;47.546;19.254;2023-04-25T06:47:37;32.28;;;13.50;;
74620;SDS011;64861;47.546;19.254;2023-04-25T06:50:02;25.80;;;11.90;;
74620;SDS011;64861;47.546;19.254;2023-04-25T06:52:28;33.22;;;12.70;;
74620;SDS011;64861;47.546;19.254;2023-04-25T06:54:53;31.02;;;12.05;;
74620;SDS011;64861;47.546;19.254;2023-04-25T06:57:19;26.48;;;11.27;;
74620;SDS011;64861;47.546;19.254;2023-04-25T06:59:44;26.38;;;11.13;;
74620;SDS011;64861;47.546;19.254;2023-04-25T07:02:10;23.73;;;9.93;;
74620;SDS011;64861;47.546;19.254;2023-04-25T07:04:35;22.08;;;10.25;;
74620;SDS011;64861;47.546;19.254;2023-04-25T07:07:01;30.05;;;10.38;;
74620;SDS011;64861;47.546;19.254;2023-04-25T07:09:28;22.67;;;8.80;;
74620;SDS011;64861;47.546;19.254;2023-04-25T07:11:53;20.67;;;8.73;;
74620;SDS011;64861;47.546;19.254;2023-04-25T07:14:19;28.25;;;9.05;;
74620;SDS011;64861;47.546;19.254;2023-04-25T07:16:45;20.50;;;8.10;;
74620;SDS011;64861;47.546;19.254;2023-04-25T07:19:10;22.95;;;7.38;;
74620;SDS011;64861;47.546;19.254;2023-04-25T07:21:36;14.73;;;6.97;;
74620;SDS011;64861;47.546;19.254;2023-04-25T07:24:01;16.55;;;7.30;;
74620;SDS011;64861;47.546;19.254;2023-04-25T07:26:27;17.20;;;6.47;;
74620;SDS011;64861;47.546;19.254;2023-04-25T07:28:52;19.83;;;6.47;;
74620;SDS011;64861;47.546;19.254;2023-04-25T07:31:19;18.02;;;6.13;;
74620;SDS011;64861;47.546;19.254;2023-04-25T07:33:45;20.98;;;6.15;;
74620;SDS011;64861;47.546;19.254;2023-04-25T07:36:11;23.15;;;5.97;;
74620;SDS011;64861;47.546;19.254;2023-04-25T07:38:37;19.00;;;5.57;;
74620;SDS011;64861;47.546;19.254;2023-04-25T07:41:03;19.90;;;5.72;;
74620;SDS011;64861;47.546;19.254;2023-04-25T07:43:29;20.70;;;5.70;;
74620;SDS011;64861;47.546;19.254;2023-04-25T07:45:56;13.05;;;5.07;;
74620;SDS011;64861;47.546;19.254;2023-04-25T07:48:22;20.27;;;5.10;;
74620;SDS011;64861;47.546;19.254;2023-04-25T07:50:47;25.05;;;5.22;;
74620;SDS011;64861;47.546;19.254;2023-04-25T07:53:13;18.63;;;4.63;;
74620;SDS011;64861;47.546;19.254;2023-04-25T07:55:38;19.92;;;4.65;;
74620;SDS011;64861;47.546;19.254;2023-04-25T07:58:07;12.55;;;4.40;;
74620;SDS011;64861;47.546;19.254;2023-04-25T08:00:33;12.32;;;3.95;;
74620;SDS011;64861;47.546;19.254;2023-04-25T08:02:58;14.05;;;4.32;;
74620;SDS011;64861;47.546;19.254;2023-04-25T08:05:24;13.45;;;3.60;;
74620;SDS011;64861;47.546;19.254;2023-04-25T08:07:49;13.43;;;3.60;;
74620;SDS011;64861;47.546;19.254;2023-04-25T08:10:15;9.82;;;3.60;;
74620;SDS011;64861;47.546;19.254;2023-04-25T08:12:40;12.25;;;3.60;;
74620;SDS011;64861;47.546;19.254;2023-04-25T08:15:06;15.10;;;3.30;;
74620;SDS011;64861;47.546;19.254;2023-04-25T08:17:32;9.85;;;3.25;;
74620;SDS011;64861;47.546;19.254;2023-04-25T08:19:57;11.13;;;2.95;;
74620;SDS011;64861;47.546;19.254;2023-04-25T08:22:23;14.07;;;3.47;;
74620;SDS011;64861;47.546;19.254;2023-04-25T08:24:48;9.95;;;3.78;;
74620;SDS011;64861;47.546;19.254;2023-04-25T08:27:14;9.98;;;2.88;;
74620;SDS011;64861;47.546;19.254;2023-04-25T08:29:39;11.15;;;2.80;;
74620;SDS011;64861;47.546;19.254;2023-04-25T08:32:06;12.32;;;2.97;;
74620;SDS011;64861;47.546;19.254;2023-04-25T08:34:31;9.65;;;2.80;;
74620;SDS011;64861;47.546;19.254;2023-04-25T08:36:57;8.82;;;2.78;;
74620;SDS011;64861;47.546;19.254;2023-04-25T08:39:22;8.70;;;2.40;;
74620;SDS011;64861;47.546;19.254;2023-04-25T08:41:48;9.55;;;2.60;;
74620;SDS011;64861;47.546;19.254;2023-04-25T08:44:13;6.72;;;2.08;;
74620;SDS011;64861;47.546;19.254;2023-04-25T08:46:40;8.55;;;2.40;;
74620;SDS011;64861;47.546;19.254;2023-04-25T08:49:06;8.27;;;2.33;;
74620;SDS011;64861;47.546;19.254;2023-04-25T08:51:34;10.85;;;2.17;;
74620;SDS011;64861;47.546;19.254;2023-04-25T08:54:14;6.45;;;2.22;;
74620;SDS011;64861;47.546;19.254;2023-04-25T08:56:46;6.53;;;2.33;;
74620;SDS011;64861;47.546;19.254;2023-04-25T08:59:13;7.95;;;2.15;;
74620;SDS011;64861;47.546;19.254;2023-04-25T09:01:39;8.63;;;2.35;;
74620;SDS011;64861;47.546;19.254;2023-04-25T09:04:04;9.43;;;1.90;;
74620;SDS011;64861;47.546;19.254;2023-04-25T09:06:30;8.05;;;2.15;;
74620;SDS011;64861;47.546;19.254;2023-04-25T09:09:06;6.75;;;1.95;;
74620;SDS011;64861;47.546;19.254;2023-04-25T09:11:33;6.47;;;1.73;;
74620;SDS011;64861;47.546;19.254;2023-04-25T09:14:17;8.35;;;2.10;;
74620;SDS011;64861;47.546;19.254;2023-04-25T09:19:28;7.10;;;1.70;;
74620;SDS011;64861;47.546;19.254;2023-04-25T09:21:59;7.00;;;1.80;;
74620;SDS011;64861;47.546;19.254;2023-04-25T09:24:35;7.78;;;1.65;;
74620;SDS011;64861;47.546;19.254;2023-04-25T09:27:08;6.45;;;1.67;;
74620;SDS011;64861;47.546;19.254;2023-04-25T09:29:36;5.75;;;1.60;;
74620;SDS011;64861;47.546;19.254;2023-04-25T09:32:20;9.00;;;1.83;;
74620;SDS011;64861;47.546;19.254;2023-04-25T09:34:49;6.00;;;1.30;;
74620;SDS011;64861;47.546;19.254;2023-04-25T09:37:26;10.43;;;1.70;;
74620;SDS011;64861;47.546;19.254;2023-04-25T09:39:57;5.03;;;1.55;;
74620;SDS011;64861;47.546;19.254;2023-04-25T09:42:30;5.57;;;1.50;;
74620;SDS011;64861;47.546;19.254;2023-04-25T09:44:57;3.72;;;1.40;;
74620;SDS011;64861;47.546;19.254;2023-04-25T09:47:24;7.10;;;1.40;;
74620;SDS011;64861;47.546;19.254;2023-04-25T09:49:52;6.30;;;1.40;;
74620;SDS011;64861;47.546;19.254;2023-04-25T09:52:19;4.28;;;1.23;;
74620;SDS011;64861;47.546;19.254;2023-04-25T09:54:46;9.35;;;1.33;;
74620;SDS011;64861;47.546;19.254;2023-04-25T09:57:24;6.32;;;1.50;;
74620;SDS011;64861;47.546;19.254;2023-04-25T09:59:51;7.88;;;1.65;;
74620;SDS011;64861;47.546;19.254;2023-04-25T10:02:20;9.50;;;1.67;;
74620;SDS011;64861;47.546;19.254;2023-04-25T10:04:50;9.25;;;1.50;;
74620;SDS011;64861;47.546;19.254;2023-04-25T10:07:19;7.37;;;1.87;;
74620;SDS011;64861;47.546;19.254;2023-04-25T10:09:49;6.40;;;1.63;;
74620;SDS011;64861;47.546;19.254;2023-04-25T10:12:16;9.18;;;1.80;;
74620;SDS011;64861;47.546;19.254;2023-04-25T10:14:42;8.65;;;1.63;;
74620;SDS011;64861;47.546;19.254;2023-04-25T10:17:08;6.35;;;1.60;;
74620;SDS011;64861;47.546;19.254;2023-04-25T10:19:36;5.82;;;1.63;;
74620;SDS011;64861;47.546;19.254;2023-04-25T10:22:11;7.03;;;1.40;;
74620;SDS011;64861;47.546;19.254;2023-04-25T10:24:42;10.90;;;1.63;;
74620;SDS011;64861;47.546;19.254;2023-04-25T10:27:09;8.85;;;1.70;;
74620;SDS011;64861;47.546;19.254;2023-04-25T10:29:36;6.93;;;1.58;;
74620;SDS011;64861;47.546;19.254;2023-04-25T10:32:01;4.72;;;1.17;;
74620;SDS011;64861;47.546;19.254;2023-04-25T10:34:43;5.63;;;1.75;;
74620;SDS011;64861;47.546;19.254;2023-04-25T10:37:12;7.07;;;1.50;;
74620;SDS011;64861;47.546;19.254;2023-04-25T10:39:41;5.10;;;1.33;;
74620;SDS011;64861;47.546;19.254;2023-04-25T10:42:07;4.80;;;1.30;;
74620;SDS011;64861;47.546;19.254;2023-04-25T10:44:33;4.95;;;1.10;;
74620;SDS011;64861;47.546;19.254;2023-04-25T10:47:00;4.32;;;1.20;;
74620;SDS011;64861;47.546;19.254;2023-04-25T10:49:28;4.20;;;1.10;;
74620;SDS011;64861;47.546;19.254;2023-04-25T10:52:10;8.00;;;1.25;;
74620;SDS011;64861;47.546;19.254;2023-04-25T11:02:42;5.93;;;1.10;;
74620;SDS011;64861;47.546;19.254;2023-04-25T11:05:10;8.05;;;0.95;;
74620;SDS011;64861;47.546;19.254;2023-04-25T11:07:45;3.55;;;1.10;;
74620;SDS011;64861;47.546;19.254;2023-04-25T11:10:16;4.45;;;1.15;;
74620;SDS011;64861;47.546;19.254;2023-04-25T11:12:43;4.20;;;1.10;;
74620;SDS011;64861;47.546;19.254;2023-04-25T11:15:10;4.63;;;1.40;;
74620;SDS011;64861;47.546;19.254;2023-04-25T11:17:35;7.38;;;1.23;;
74620;SDS011;64861;47.546;19.254;2023-04-25T11:20:01;3.55;;;1.00;;
74620;SDS011;64861;47.546;19.254;2023-04-25T11:22:32;6.25;;;1.20;;
74620;SDS011;64861;47.546;19.254;2023-04-25T11:25:04;4.22;;;0.95;;
74620;SDS011;64861;47.546;19.254;2023-04-25T11:27:30;4.10;;;0.85;;
74620;SDS011;64861;47.546;19.254;2023-04-25T11:29:56;4.63;;;1.05;;
74620;SDS011;64861;47.546;19.254;2023-04-25T11:32:21;2.45;;;0.82;;
74620;SDS011;64861;47.546;19.254;2023-04-25T11:34:47;3.35;;;0.88;;
74620;SDS011;64861;47.546;19.254;2023-04-25T11:37:12;2.80;;;0.77;;
74620;SDS011;64861;47.546;19.254;2023-04-25T11:39:42;3.40;;;1.00;;
74620;SDS011;64861;47.546;19.254;2023-04-25T11:42:10;4.20;;;1.00;;
74620;SDS011;64861;47.546;19.254;2023-04-25T11:44:37;4.78;;;0.60;;
74620;SDS011;64861;47.546;19.254;2023-04-25T11:47:04;3.78;;;0.85;;
74620;SDS011;64861;47.546;19.254;2023-04-25T11:49:30;4.72;;;0.90;;
74620;SDS011;64861;47.546;19.254;2023-04-25T11:51:57;2.10;;;0.82;;
74620;SDS011;64861;47.546;19.254;2023-04-25T11:54:22;5.50;;;0.65;;
74620;SDS011;64861;47.546;19.254;2023-04-25T11:56:48;3.40;;;0.93;;
74620;SDS011;64861;47.546;19.254;2023-04-25T11:59:13;2.80;;;0.80;;
74620;SDS011;64861;47.546;19.254;2023-04-25T12:01:40;4.18;;;0.73;;
74620;SDS011;64861;47.546;19.254;2023-04-25T12:04:13;3.83;;;0.95;;
74620;SDS011;64861;47.546;19.254;2023-04-25T12:06:49;1.52;;;0.55;;
74620;SDS011;64861;47.546;19.254;2023-04-25T12:09:17;5.85;;;0.90;;
74620;SDS011;64861;47.546;19.254;2023-04-25T12:11:53;3.88;;;0.80;;
74620;SDS011;64861;47.546;19.254;2023-04-25T12:14:23;3.70;;;0.60;;
74620;SDS011;64861;47.546;19.254;2023-04-25T12:16:52;3.28;;;0.80;;
74620;SDS011;64861;47.546;19.254;2023-04-25T12:19:19;5.15;;;1.08;;
74620;SDS011;64861;47.546;19.254;2023-04-25T12:21:45;7.93;;;0.75;;
74620;SDS011;64861;47.546;19.254;2023-04-25T12:24:16;3.00;;;0.70;;
74620;SDS011;64861;47.546;19.254;2023-04-25T12:26:55;5.63;;;0.93;;
74620;SDS011;64861;47.546;19.254;2023-04-25T12:29:29;2.60;;;0.80;;
74620;SDS011;64861;47.546;19.254;2023-04-25T12:31:56;3.60;;;0.93;;
74620;SDS011;64861;47.546;19.254;2023-04-25T12:34:22;3.13;;;0.60;;
74620;SDS011;64861;47.546;19.254;2023-04-25T12:36:49;4.63;;;0.60;;
74620;SDS011;64861;47.546;19.254;2023-04-25T12:39:16;2.33;;;0.70;;
74620;SDS011;64861;47.546;19.254;2023-04-25T12:41:43;2.88;;;0.70;;
74620;SDS011;64861;47.546;19.254;2023-04-25T12:44:08;3.58;;;0.77;;
74620;SDS011;64861;47.546;19.254;2023-04-25T12:46:35;2.92;;;0.95;;
74620;SDS011;64861;47.546;19.254;2023-04-25T12:49:00;3.13;;;0.68;;
74620;SDS011;64861;47.546;19.254;2023-04-25T12:51:26;3.25;;;0.70;;
74620;SDS011;64861;47.546;19.254;2023-04-25T12:53:52;2.83;;;0.65;;
74620;SDS011;64861;47.546;19.254;2023-04-25T12:56:18;1.85;;;0.70;;
74620;SDS011;64861;47.546;19.254;2023-04-25T12:58:44;3.95;;;0.70;;
74620;SDS011;64861;47.546;19.254;2023-04-25T13:01:10;1.95;;;0.60;;
74620;SDS011;64861;47.546;19.254;2023-04-25T13:03:37;2.92;;;0.75;;
74620;SDS011;64861;47.546;19.254;2023-04-25T13:06:02;3.90;;;0.60;;
74620;SDS011;64861;47.546;19.254;2023-04-25T13:08:28;2.80;;;0.75;;
74620;SDS011;64861;47.546;19.254;2023-04-25T13:10:54;3.25;;;0.60;;
74620;SDS011;64861;47.546;19.254;2023-04-25T13:13:20;4.13;;;0.60;;
74620;SDS011;64861;47.546;19.254;2023-04-25T13:15:45;3.42;;;0.57;;
74620;SDS011;64861;47.546;19.254;2023-04-25T13:18:11;3.42;;;0.57;;
74620;SDS011;64861;47.546;19.254;2023-04-25T13:20:36;2.97;;;0.50;;
74620;SDS011;64861;47.546;19.254;2023-04-25T13:23:02;2.70;;;0.70;;
74620;SDS011;64861;47.546;19.254;2023-04-25T13:25:27;4.47;;;0.70;;
74620;SDS011;64861;47.546;19.254;2023-04-25T13:27:53;11.15;;;0.60;;
74620;SDS011;64861;47.546;19.254;2023-04-25T13:30:18;4.20;;;0.57;;
74620;SDS011;64861;47.546;19.254;2023-04-25T13:32:43;5.38;;;0.80;;
74620;SDS011;64861;47.546;19.254;2023-04-25T13:35:10;2.97;;;0.77;;
74620;SDS011;64861;47.546;19.254;2023-04-25T13:37:37;1.52;;;0.60;;
74620;SDS011;64861;47.546;19.254;2023-04-25T13:40:04;6.07;;;0.65;;
74620;SDS011;64861;47.546;19.254;2023-04-25T13:42:35;3.35;;;0.55;;
74620;SDS011;64861;47.546;19.254;2023-04-25T13:45:01;3.50;;;0.50;;
74620;SDS011;64861;47.546;19.254;2023-04-25T13:47:28;1.50;;;0.50;;
74620;SDS011;64861;47.546;19.254;2023-04-25T13:49:53;5.03;;;0.63;;
74620;SDS011;64861;47.546;19.254;2023-04-25T13:52:19;5.60;;;0.80;;
74620;SDS011;64861;47.546;19.254;2023-04-25T13:54:45;4.28;;;0.73;;
74620;SDS011;64861;47.546;19.254;2023-04-25T13:57:11;2.00;;;0.52;;
74620;SDS011;64861;47.546;19.254;2023-04-25T13:59:37;3.47;;;0.80;;
74620;SDS011;64861;47.546;19.254;2023-04-25T14:02:03;4.70;;;0.50;;
74620;SDS011;64861;47.546;19.254;2023-04-25T14:04:29;5.63;;;0.60;;
74620;SDS011;64861;47.546;19.254;2023-04-25T14:06:55;3.53;;;0.52;;
74620;SDS011;64861;47.546;19.254;2023-04-25T14:09:21;4.20;;;0.80;;
74620;SDS011;64861;47.546;19.254;2023-04-25T14:11:50;4.57;;;0.60;;
74620;SDS011;64861;47.546;19.254;2023-04-25T14:14:17;5.03;;;0.70;;
74620;SDS011;64861;47.546;19.254;2023-04-25T14:16:43;5.57;;;0.60;;
74620;SDS011;64861;47.546;19.254;2023-04-25T14:19:08;9.73;;;0.63;;
74620;SDS011;64861;47.546;19.254;2023-04-25T14:21:34;8.80;;;0.60;;
74620;SDS011;64861;47.546;19.254;2023-04-25T14:24:00;7.70;;;0.77;;
74620;SDS011;64861;47.546;19.254;2023-04-25T14:26:25;7.25;;;0.85;;
74620;SDS011;64861;47.546;19.254;2023-04-25T14:28:51;5.82;;;0.60;;
74620;SDS011;64861;47.546;19.254;2023-04-25T14:31:17;6.32;;;0.70;;
74620;SDS011;64861;47.546;19.254;2023-04-25T14:33:43;6.22;;;0.65;;
74620;SDS011;64861;47.546;19.254;2023-04-25T14:36:08;3.92;;;0.70;;
74620;SDS011;64861;47.546;19.254;2023-04-25T14:38:35;4.35;;;0.70;;